sensor_id;sensor_type;location;lat;lon;timestamp;P1;durP1;ratioP1;P2;durP2;ratioP2
15905;SDS011;8051;50.820;4.884;2023-08-24T00:01:03;25.83;;;24.03;;
15905;SDS011;8051;50.820;4.884;2023-08-24T00:03:30;26.57;;;24.50;;
15905;SDS011;8051;50.820;4.884;2023-08-24T00:05:58;26.73;;;24.63;;
15905;SDS011;8051;50.820;4.884;2023-08-24T00:08:25;27.03;;;24.67;;
15905;SDS011;8051;50.820;4.884;2023-08-24T00:10:53;27.70;;;24.93;;
15905;SDS011;8051;50.820;4.884;2023-08-24T00:13:20;26.70;;;24.90;;
15905;SDS011;8051;50.820;4.884;2023-08-24T00:15:49;27.23;;;25.13;;
15905;SDS011;8051;50.820;4.884;2023-08-24T00:18:17;27.03;;;25.10;;
15905;SDS011;8051;50.820;4.884;2023-08-24T00:20:47;26.97;;;24.73;;
15905;SDS011;8051;50.820;4.884;2023-08-24T00:23:14;28.37;;;25.93;;
15905;SDS011;8051;50.820;4.884;2023-08-24T00:25:42;27.07;;;25.30;;
15905;SDS011;8051;50.820;4.884;2023-08-24T00:28:10;28.27;;;26.27;;
15905;SDS011;8051;50.820;4.884;2023-08-24T00:30:37;27.37;;;25.37;;
15905;SDS011;8051;50.820;4.884;2023-08-24T00:33:06;28.20;;;26.27;;
15905;SDS011;8051;50.820;4.884;2023-08-24T00:35:33;28.77;;;26.20;;
15905;SDS011;8051;50.820;4.884;2023-08-24T00:38:01;27.63;;;25.73;;
15905;SDS011;8051;50.820;4.884;2023-08-24T00:40:29;26.80;;;24.90;;
15905;SDS011;8051;50.820;4.884;2023-08-24T00:42:57;29.50;;;26.73;;
15905;SDS011;8051;50.820;4.884;2023-08-24T00:45:25;29.07;;;26.83;;
15905;SDS011;8051;50.820;4.884;2023-08-24T00:47:52;28.87;;;26.77;;
15905;SDS011;8051;50.820;4.884;2023-08-24T00:50:21;29.70;;;27.20;;
15905;SDS011;8051;50.820;4.884;2023-08-24T00:52:49;28.37;;;26.37;;
15905;SDS011;8051;50.820;4.884;2023-08-24T00:55:16;29.27;;;26.93;;
15905;SDS011;8051;50.820;4.884;2023-08-24T00:57:44;30.37;;;27.80;;
15905;SDS011;8051;50.820;4.884;2023-08-24T01:00:12;29.17;;;27.17;;
15905;SDS011;8051;50.820;4.884;2023-08-24T01:02:39;29.23;;;26.83;;
15905;SDS011;8051;50.820;4.884;2023-08-24T01:05:07;29.43;;;27.20;;
15905;SDS011;8051;50.820;4.884;2023-08-24T01:07:37;28.17;;;26.27;;
15905;SDS011;8051;50.820;4.884;2023-08-24T01:10:06;29.40;;;26.83;;
15905;SDS011;8051;50.820;4.884;2023-08-24T01:12:38;27.97;;;26.00;;
15905;SDS011;8051;50.820;4.884;2023-08-24T01:15:13;28.63;;;26.63;;
15905;SDS011;8051;50.820;4.884;2023-08-24T01:17:46;28.47;;;26.27;;
15905;SDS011;8051;50.820;4.884;2023-08-24T01:20:16;28.80;;;26.70;;
15905;SDS011;8051;50.820;4.884;2023-08-24T01:22:49;29.70;;;27.23;;
15905;SDS011;8051;50.820;4.884;2023-08-24T01:25:24;27.87;;;25.97;;
15905;SDS011;8051;50.820;4.884;2023-08-24T01:28:01;27.33;;;25.30;;
15905;SDS011;8051;50.820;4.884;2023-08-24T01:30:30;28.10;;;26.00;;
15905;SDS011;8051;50.820;4.884;2023-08-24T01:33:02;27.37;;;25.37;;
15905;SDS011;8051;50.820;4.884;2023-08-24T01:35:30;28.23;;;25.70;;
15905;SDS011;8051;50.820;4.884;2023-08-24T01:37:58;26.63;;;24.70;;
15905;SDS011;8051;50.820;4.884;2023-08-24T01:40:33;28.00;;;26.10;;
15905;SDS011;8051;50.820;4.884;2023-08-24T01:43:08;27.43;;;25.30;;
15905;SDS011;8051;50.820;4.884;2023-08-24T01:45:40;27.23;;;25.10;;
15905;SDS011;8051;50.820;4.884;2023-08-24T01:48:10;26.97;;;25.17;;
15905;SDS011;8051;50.820;4.884;2023-08-24T01:50:38;26.67;;;24.97;;
15905;SDS011;8051;50.820;4.884;2023-08-24T01:53:07;27.93;;;25.93;;
15905;SDS011;8051;50.820;4.884;2023-08-24T01:55:34;29.90;;;27.40;;
15905;SDS011;8051;50.820;4.884;2023-08-24T01:58:02;28.27;;;26.47;;
15905;SDS011;8051;50.820;4.884;2023-08-24T02:00:31;28.57;;;26.47;;
15905;SDS011;8051;50.820;4.884;2023-08-24T02:02:58;29.03;;;26.83;;
15905;SDS011;8051;50.820;4.884;2023-08-24T02:05:26;28.40;;;26.30;;
15905;SDS011;8051;50.820;4.884;2023-08-24T02:07:54;30.17;;;27.57;;
15905;SDS011;8051;50.820;4.884;2023-08-24T02:10:22;28.83;;;26.73;;
15905;SDS011;8051;50.820;4.884;2023-08-24T02:12:49;29.17;;;26.97;;
15905;SDS011;8051;50.820;4.884;2023-08-24T02:15:17;29.63;;;27.33;;
15905;SDS011;8051;50.820;4.884;2023-08-24T02:17:46;30.20;;;27.93;;
15905;SDS011;8051;50.820;4.884;2023-08-24T02:20:14;29.80;;;27.50;;
15905;SDS011;8051;50.820;4.884;2023-08-24T02:22:41;30.10;;;27.90;;
15905;SDS011;8051;50.820;4.884;2023-08-24T02:25:09;30.40;;;28.20;;
15905;SDS011;8051;50.820;4.884;2023-08-24T02:27:36;29.67;;;27.63;;
15905;SDS011;8051;50.820;4.884;2023-08-24T02:30:04;31.40;;;28.90;;
15905;SDS011;8051;50.820;4.884;2023-08-24T02:32:33;32.80;;;30.17;;
15905;SDS011;8051;50.820;4.884;2023-08-24T02:35:02;32.50;;;30.10;;
15905;SDS011;8051;50.820;4.884;2023-08-24T02:37:30;31.97;;;29.57;;
15905;SDS011;8051;50.820;4.884;2023-08-24T02:39:57;32.00;;;29.40;;
15905;SDS011;8051;50.820;4.884;2023-08-24T02:42:25;31.97;;;29.47;;
15905;SDS011;8051;50.820;4.884;2023-08-24T02:44:53;31.17;;;28.67;;
15905;SDS011;8051;50.820;4.884;2023-08-24T02:47:20;32.03;;;29.03;;
15905;SDS011;8051;50.820;4.884;2023-08-24T02:49:48;29.87;;;27.37;;
15905;SDS011;8051;50.820;4.884;2023-08-24T02:52:17;30.90;;;28.07;;
15905;SDS011;8051;50.820;4.884;2023-08-24T02:54:44;30.23;;;27.83;;
15905;SDS011;8051;50.820;4.884;2023-08-24T02:57:11;29.23;;;26.83;;
15905;SDS011;8051;50.820;4.884;2023-08-24T02:59:39;30.47;;;27.80;;
15905;SDS011;8051;50.820;4.884;2023-08-24T03:02:08;29.27;;;26.53;;
15905;SDS011;8051;50.820;4.884;2023-08-24T03:04:36;27.10;;;24.90;;
15905;SDS011;8051;50.820;4.884;2023-08-24T03:07:03;28.37;;;26.07;;
15905;SDS011;8051;50.820;4.884;2023-08-24T03:09:35;27.27;;;24.97;;
15905;SDS011;8051;50.820;4.884;2023-08-24T03:12:02;27.97;;;25.40;;
15905;SDS011;8051;50.820;4.884;2023-08-24T03:14:30;26.40;;;24.27;;
15905;SDS011;8051;50.820;4.884;2023-08-24T03:16:58;25.20;;;23.00;;
15905;SDS011;8051;50.820;4.884;2023-08-24T03:19:25;24.90;;;22.50;;
15905;SDS011;8051;50.820;4.884;2023-08-24T03:21:53;27.87;;;25.03;;
15905;SDS011;8051;50.820;4.884;2023-08-24T03:24:20;27.70;;;24.80;;
15905;SDS011;8051;50.820;4.884;2023-08-24T03:26:49;27.50;;;24.90;;
15905;SDS011;8051;50.820;4.884;2023-08-24T03:29:16;28.60;;;25.97;;
15905;SDS011;8051;50.820;4.884;2023-08-24T03:31:44;26.33;;;24.17;;
15905;SDS011;8051;50.820;4.884;2023-08-24T03:34:13;24.43;;;22.43;;
15905;SDS011;8051;50.820;4.884;2023-08-24T03:36:40;25.47;;;23.03;;
15905;SDS011;8051;50.820;4.884;2023-08-24T03:39:08;25.30;;;22.83;;
15905;SDS011;8051;50.820;4.884;2023-08-24T03:41:36;24.13;;;22.03;;
15905;SDS011;8051;50.820;4.884;2023-08-24T03:44:05;25.03;;;22.53;;
15905;SDS011;8051;50.820;4.884;2023-08-24T03:46:33;25.90;;;23.60;;
15905;SDS011;8051;50.820;4.884;2023-08-24T03:49:00;25.70;;;23.60;;
15905;SDS011;8051;50.820;4.884;2023-08-24T03:51:28;24.63;;;22.57;;
15905;SDS011;8051;50.820;4.884;2023-08-24T03:53:55;24.23;;;22.20;;
15905;SDS011;8051;50.820;4.884;2023-08-24T03:56:22;23.80;;;21.57;;
15905;SDS011;8051;50.820;4.884;2023-08-24T03:58:50;24.47;;;22.37;;
15905;SDS011;8051;50.820;4.884;2023-08-24T04:01:19;25.20;;;23.07;;
15905;SDS011;8051;50.820;4.884;2023-08-24T04:03:47;25.90;;;23.40;;
15905;SDS011;8051;50.820;4.884;2023-08-24T04:06:17;25.03;;;22.30;;
15905;SDS011;8051;50.820;4.884;2023-08-24T04:08:46;25.73;;;22.20;;
15905;SDS011;8051;50.820;4.884;2023-08-24T04:11:13;24.17;;;21.60;;
15905;SDS011;8051;50.820;4.884;2023-08-24T04:13:41;25.07;;;21.47;;
15905;SDS011;8051;50.820;4.884;2023-08-24T04:16:08;22.93;;;20.90;;
15905;SDS011;8051;50.820;4.884;2023-08-24T04:18:37;23.87;;;21.47;;
15905;SDS011;8051;50.820;4.884;2023-08-24T04:21:05;25.07;;;22.23;;
15905;SDS011;8051;50.820;4.884;2023-08-24T04:23:33;24.83;;;22.33;;
15905;SDS011;8051;50.820;4.884;2023-08-24T04:26:00;25.97;;;23.57;;
15905;SDS011;8051;50.820;4.884;2023-08-24T04:28:30;25.87;;;23.37;;
15905;SDS011;8051;50.820;4.884;2023-08-24T04:30:57;23.23;;;21.07;;
15905;SDS011;8051;50.820;4.884;2023-08-24T04:33:25;23.87;;;21.67;;
15905;SDS011;8051;50.820;4.884;2023-08-24T04:35:54;23.03;;;20.90;;
15905;SDS011;8051;50.820;4.884;2023-08-24T04:38:21;23.23;;;20.83;;
15905;SDS011;8051;50.820;4.884;2023-08-24T04:40:49;23.93;;;21.57;;
15905;SDS011;8051;50.820;4.884;2023-08-24T04:43:17;24.70;;;22.17;;
15905;SDS011;8051;50.820;4.884;2023-08-24T04:45:46;24.13;;;21.43;;
15905;SDS011;8051;50.820;4.884;2023-08-24T04:48:14;22.80;;;20.63;;
15905;SDS011;8051;50.820;4.884;2023-08-24T04:50:43;23.13;;;20.97;;
15905;SDS011;8051;50.820;4.884;2023-08-24T04:53:13;21.73;;;19.67;;
15905;SDS011;8051;50.820;4.884;2023-08-24T04:55:42;21.00;;;18.80;;
15905;SDS011;8051;50.820;4.884;2023-08-24T04:58:10;24.97;;;20.23;;
15905;SDS011;8051;50.820;4.884;2023-08-24T05:00:38;21.07;;;19.03;;
15905;SDS011;8051;50.820;4.884;2023-08-24T05:03:06;21.47;;;19.40;;
15905;SDS011;8051;50.820;4.884;2023-08-24T05:05:34;21.47;;;19.50;;
15905;SDS011;8051;50.820;4.884;2023-08-24T05:08:03;23.87;;;21.57;;
15905;SDS011;8051;50.820;4.884;2023-08-24T05:10:36;23.17;;;20.27;;
15905;SDS011;8051;50.820;4.884;2023-08-24T05:13:04;23.07;;;20.67;;
15905;SDS011;8051;50.820;4.884;2023-08-24T05:15:31;23.63;;;21.53;;
15905;SDS011;8051;50.820;4.884;2023-08-24T05:17:58;21.57;;;19.17;;
15905;SDS011;8051;50.820;4.884;2023-08-24T05:20:26;20.87;;;18.73;;
15905;SDS011;8051;50.820;4.884;2023-08-24T05:22:54;21.70;;;19.07;;
15905;SDS011;8051;50.820;4.884;2023-08-24T05:25:22;20.73;;;16.63;;
15905;SDS011;8051;50.820;4.884;2023-08-24T05:27:51;19.93;;;17.13;;
15905;SDS011;8051;50.820;4.884;2023-08-24T05:30:18;17.80;;;16.27;;
15905;SDS011;8051;50.820;4.884;2023-08-24T05:32:46;20.57;;;18.60;;
15905;SDS011;8051;50.820;4.884;2023-08-24T05:35:13;23.07;;;18.60;;
15905;SDS011;8051;50.820;4.884;2023-08-24T05:37:41;19.73;;;18.00;;
15905;SDS011;8051;50.820;4.884;2023-08-24T05:40:09;18.83;;;16.90;;
15905;SDS011;8051;50.820;4.884;2023-08-24T05:42:36;19.27;;;17.37;;
15905;SDS011;8051;50.820;4.884;2023-08-24T05:45:06;19.63;;;17.73;;
15905;SDS011;8051;50.820;4.884;2023-08-24T05:47:34;17.53;;;15.90;;
15905;SDS011;8051;50.820;4.884;2023-08-24T05:50:02;20.07;;;18.37;;
15905;SDS011;8051;50.820;4.884;2023-08-24T05:52:29;20.33;;;18.43;;
15905;SDS011;8051;50.820;4.884;2023-08-24T05:54:57;21.40;;;19.70;;
15905;SDS011;8051;50.820;4.884;2023-08-24T05:57:24;23.10;;;21.17;;
15905;SDS011;8051;50.820;4.884;2023-08-24T05:59:52;23.10;;;21.07;;
15905;SDS011;8051;50.820;4.884;2023-08-24T06:02:21;23.90;;;22.00;;
15905;SDS011;8051;50.820;4.884;2023-08-24T06:04:48;23.47;;;21.60;;
15905;SDS011;8051;50.820;4.884;2023-08-24T06:07:16;23.17;;;21.33;;
15905;SDS011;8051;50.820;4.884;2023-08-24T06:09:43;23.47;;;21.67;;
15905;SDS011;8051;50.820;4.884;2023-08-24T06:12:11;23.33;;;21.37;;
15905;SDS011;8051;50.820;4.884;2023-08-24T06:14:38;22.63;;;20.70;;
15905;SDS011;8051;50.820;4.884;2023-08-24T06:17:06;22.90;;;21.30;;
15905;SDS011;8051;50.820;4.884;2023-08-24T06:19:35;23.43;;;21.73;;
15905;SDS011;8051;50.820;4.884;2023-08-24T06:22:02;24.17;;;22.17;;
15905;SDS011;8051;50.820;4.884;2023-08-24T06:24:30;23.80;;;21.60;;
15905;SDS011;8051;50.820;4.884;2023-08-24T06:26:57;24.60;;;22.63;;
15905;SDS011;8051;50.820;4.884;2023-08-24T06:29:25;25.00;;;23.03;;
15905;SDS011;8051;50.820;4.884;2023-08-24T06:31:53;26.43;;;24.10;;
15905;SDS011;8051;50.820;4.884;2023-08-24T06:34:21;26.57;;;24.60;;
15905;SDS011;8051;50.820;4.884;2023-08-24T06:36:52;25.97;;;23.87;;
15905;SDS011;8051;50.820;4.884;2023-08-24T06:39:21;25.60;;;23.57;;
15905;SDS011;8051;50.820;4.884;2023-08-24T06:41:50;25.03;;;23.33;;
15905;SDS011;8051;50.820;4.884;2023-08-24T06:44:17;25.03;;;23.07;;
15905;SDS011;8051;50.820;4.884;2023-08-24T06:46:45;25.53;;;23.53;;
15905;SDS011;8051;50.820;4.884;2023-08-24T06:49:12;25.53;;;23.50;;
15905;SDS011;8051;50.820;4.884;2023-08-24T06:51:40;25.73;;;23.77;;
15905;SDS011;8051;50.820;4.884;2023-08-24T06:54:09;25.37;;;23.37;;
15905;SDS011;8051;50.820;4.884;2023-08-24T06:56:36;26.77;;;24.60;;
15905;SDS011;8051;50.820;4.884;2023-08-24T06:59:04;26.57;;;24.47;;
15905;SDS011;8051;50.820;4.884;2023-08-24T07:01:31;25.60;;;23.40;;
15905;SDS011;8051;50.820;4.884;2023-08-24T07:03:59;27.00;;;24.97;;
15905;SDS011;8051;50.820;4.884;2023-08-24T07:06:27;26.57;;;24.40;;
15905;SDS011;8051;50.820;4.884;2023-08-24T07:08:54;26.17;;;24.13;;
15905;SDS011;8051;50.820;4.884;2023-08-24T07:11:23;25.27;;;23.07;;
15905;SDS011;8051;50.820;4.884;2023-08-24T07:13:51;25.63;;;23.63;;
15905;SDS011;8051;50.820;4.884;2023-08-24T07:16:19;27.40;;;25.17;;
15905;SDS011;8051;50.820;4.884;2023-08-24T07:18:46;26.50;;;24.40;;
15905;SDS011;8051;50.820;4.884;2023-08-24T07:21:14;26.33;;;24.17;;
15905;SDS011;8051;50.820;4.884;2023-08-24T07:23:42;26.60;;;24.17;;
15905;SDS011;8051;50.820;4.884;2023-08-24T07:26:10;25.00;;;23.10;;
15905;SDS011;8051;50.820;4.884;2023-08-24T07:28:39;24.80;;;22.63;;
15905;SDS011;8051;50.820;4.884;2023-08-24T07:31:06;24.77;;;22.70;;
15905;SDS011;8051;50.820;4.884;2023-08-24T07:33:35;25.30;;;23.50;;
15905;SDS011;8051;50.820;4.884;2023-08-24T07:36:04;25.70;;;24.00;;
15905;SDS011;8051;50.820;4.884;2023-08-24T07:38:32;25.50;;;23.90;;
15905;SDS011;8051;50.820;4.884;2023-08-24T07:40:59;25.27;;;23.20;;
15905;SDS011;8051;50.820;4.884;2023-08-24T07:43:28;25.47;;;23.47;;
15905;SDS011;8051;50.820;4.884;2023-08-24T07:45:57;25.43;;;23.40;;
15905;SDS011;8051;50.820;4.884;2023-08-24T07:48:25;25.57;;;23.70;;
15905;SDS011;8051;50.820;4.884;2023-08-24T07:50:52;26.60;;;24.27;;
15905;SDS011;8051;50.820;4.884;2023-08-24T07:53:20;26.00;;;24.00;;
15905;SDS011;8051;50.820;4.884;2023-08-24T07:55:47;26.00;;;24.10;;
15905;SDS011;8051;50.820;4.884;2023-08-24T07:58:14;24.03;;;22.43;;
15905;SDS011;8051;50.820;4.884;2023-08-24T08:00:42;23.57;;;22.03;;
15905;SDS011;8051;50.820;4.884;2023-08-24T08:03:11;26.37;;;24.47;;
15905;SDS011;8051;50.820;4.884;2023-08-24T08:05:39;25.03;;;23.43;;
15905;SDS011;8051;50.820;4.884;2023-08-24T08:08:06;25.47;;;23.77;;
15905;SDS011;8051;50.820;4.884;2023-08-24T08:10:34;23.20;;;21.70;;
15905;SDS011;8051;50.820;4.884;2023-08-24T08:13:01;24.33;;;22.90;;
15905;SDS011;8051;50.820;4.884;2023-08-24T08:15:29;25.67;;;23.47;;
15905;SDS011;8051;50.820;4.884;2023-08-24T08:17:56;23.90;;;22.20;;
15905;SDS011;8051;50.820;4.884;2023-08-24T08:20:25;26.03;;;23.93;;
15905;SDS011;8051;50.820;4.884;2023-08-24T08:22:53;25.47;;;23.53;;
15905;SDS011;8051;50.820;4.884;2023-08-24T08:25:20;25.93;;;24.27;;
15905;SDS011;8051;50.820;4.884;2023-08-24T08:27:48;24.60;;;22.80;;
15905;SDS011;8051;50.820;4.884;2023-08-24T08:30:16;21.53;;;20.17;;
15905;SDS011;8051;50.820;4.884;2023-08-24T08:32:45;22.40;;;21.00;;
15905;SDS011;8051;50.820;4.884;2023-08-24T08:35:13;22.80;;;21.30;;
15905;SDS011;8051;50.820;4.884;2023-08-24T08:37:42;23.87;;;22.27;;
15905;SDS011;8051;50.820;4.884;2023-08-24T08:40:10;24.13;;;22.60;;
15905;SDS011;8051;50.820;4.884;2023-08-24T08:42:38;22.50;;;21.03;;
15905;SDS011;8051;50.820;4.884;2023-08-24T08:45:08;23.90;;;22.10;;
15905;SDS011;8051;50.820;4.884;2023-08-24T08:47:36;25.23;;;23.47;;
15905;SDS011;8051;50.820;4.884;2023-08-24T08:50:06;24.40;;;22.77;;
15905;SDS011;8051;50.820;4.884;2023-08-24T08:52:34;23.70;;;22.30;;
15905;SDS011;8051;50.820;4.884;2023-08-24T08:55:04;25.17;;;23.57;;
15905;SDS011;8051;50.820;4.884;2023-08-24T08:57:35;24.73;;;23.23;;
15905;SDS011;8051;50.820;4.884;2023-08-24T09:00:05;24.40;;;22.80;;
15905;SDS011;8051;50.820;4.884;2023-08-24T09:02:35;25.13;;;23.47;;
15905;SDS011;8051;50.820;4.884;2023-08-24T09:05:03;23.70;;;21.87;;
15905;SDS011;8051;50.820;4.884;2023-08-24T09:07:32;22.60;;;21.07;;
15905;SDS011;8051;50.820;4.884;2023-08-24T09:10:01;23.30;;;21.90;;
15905;SDS011;8051;50.820;4.884;2023-08-24T09:12:31;24.67;;;23.27;;
15905;SDS011;8051;50.820;4.884;2023-08-24T09:14:59;25.73;;;23.73;;
15905;SDS011;8051;50.820;4.884;2023-08-24T09:17:31;24.77;;;23.20;;
15905;SDS011;8051;50.820;4.884;2023-08-24T09:19:59;24.13;;;22.30;;
15905;SDS011;8051;50.820;4.884;2023-08-24T09:22:34;24.93;;;23.20;;
15905;SDS011;8051;50.820;4.884;2023-08-24T09:25:03;22.80;;;21.30;;
15905;SDS011;8051;50.820;4.884;2023-08-24T09:27:33;22.70;;;21.30;;
15905;SDS011;8051;50.820;4.884;2023-08-24T09:30:01;23.80;;;22.30;;
15905;SDS011;8051;50.820;4.884;2023-08-24T09:32:29;25.70;;;23.93;;
15905;SDS011;8051;50.820;4.884;2023-08-24T09:35:01;26.30;;;24.50;;
15905;SDS011;8051;50.820;4.884;2023-08-24T09:37:31;27.60;;;25.63;;
15905;SDS011;8051;50.820;4.884;2023-08-24T09:40:03;27.20;;;25.50;;
15905;SDS011;8051;50.820;4.884;2023-08-24T09:42:38;27.30;;;25.60;;
15905;SDS011;8051;50.820;4.884;2023-08-24T09:45:07;28.77;;;26.60;;
15905;SDS011;8051;50.820;4.884;2023-08-24T09:47:37;27.13;;;25.53;;
15905;SDS011;8051;50.820;4.884;2023-08-24T09:50:06;28.00;;;26.13;;
15905;SDS011;8051;50.820;4.884;2023-08-24T09:52:34;29.00;;;26.67;;
15905;SDS011;8051;50.820;4.884;2023-08-24T09:55:02;27.63;;;25.63;;
15905;SDS011;8051;50.820;4.884;2023-08-24T09:57:33;28.83;;;26.80;;
15905;SDS011;8051;50.820;4.884;2023-08-24T10:00:05;29.70;;;27.03;;
15905;SDS011;8051;50.820;4.884;2023-08-24T10:02:39;29.13;;;26.70;;
15905;SDS011;8051;50.820;4.884;2023-08-24T10:05:16;28.73;;;26.53;;
15905;SDS011;8051;50.820;4.884;2023-08-24T10:07:48;29.07;;;26.70;;
15905;SDS011;8051;50.820;4.884;2023-08-24T10:10:19;32.33;;;29.60;;
15905;SDS011;8051;50.820;4.884;2023-08-24T10:12:51;28.73;;;26.33;;
15905;SDS011;8051;50.820;4.884;2023-08-24T10:15:24;24.03;;;22.23;;
15905;SDS011;8051;50.820;4.884;2023-08-24T10:17:52;22.77;;;20.83;;
15905;SDS011;8051;50.820;4.884;2023-08-24T10:20:21;20.60;;;19.10;;
15905;SDS011;8051;50.820;4.884;2023-08-24T10:22:50;22.27;;;20.23;;
15905;SDS011;8051;50.820;4.884;2023-08-24T10:25:18;20.60;;;18.60;;
15905;SDS011;8051;50.820;4.884;2023-08-24T10:27:46;24.47;;;20.30;;
15905;SDS011;8051;50.820;4.884;2023-08-24T10:30:17;20.63;;;18.93;;
15905;SDS011;8051;50.820;4.884;2023-08-24T10:32:46;20.30;;;18.90;;
15905;SDS011;8051;50.820;4.884;2023-08-24T10:35:18;21.20;;;19.17;;
15905;SDS011;8051;50.820;4.884;2023-08-24T10:37:48;21.90;;;20.00;;
15905;SDS011;8051;50.820;4.884;2023-08-24T10:40:30;18.17;;;16.53;;
15905;SDS011;8051;50.820;4.884;2023-08-24T10:43:02;19.80;;;17.77;;
15905;SDS011;8051;50.820;4.884;2023-08-24T10:48:24;18.60;;;17.07;;
15905;SDS011;8051;50.820;4.884;2023-08-24T10:53:46;20.00;;;17.23;;
15905;SDS011;8051;50.820;4.884;2023-08-24T10:56:17;18.33;;;16.63;;
15905;SDS011;8051;50.820;4.884;2023-08-24T10:58:46;18.87;;;16.67;;
15905;SDS011;8051;50.820;4.884;2023-08-24T11:01:16;18.67;;;16.73;;
15905;SDS011;8051;50.820;4.884;2023-08-24T11:03:50;17.53;;;15.73;;
15905;SDS011;8051;50.820;4.884;2023-08-24T11:06:21;18.57;;;16.73;;
15905;SDS011;8051;50.820;4.884;2023-08-24T11:09:04;18.00;;;16.30;;
15905;SDS011;8051;50.820;4.884;2023-08-24T11:11:38;16.37;;;14.93;;
15905;SDS011;8051;50.820;4.884;2023-08-24T11:14:13;16.83;;;15.13;;
15905;SDS011;8051;50.820;4.884;2023-08-24T11:16:43;17.53;;;15.83;;
15905;SDS011;8051;50.820;4.884;2023-08-24T11:19:12;17.63;;;16.17;;
15905;SDS011;8051;50.820;4.884;2023-08-24T11:21:41;18.93;;;17.03;;
15905;SDS011;8051;50.820;4.884;2023-08-24T11:24:10;16.67;;;15.10;;
15905;SDS011;8051;50.820;4.884;2023-08-24T11:26:41;17.13;;;15.43;;
15905;SDS011;8051;50.820;4.884;2023-08-24T11:29:09;17.70;;;16.27;;
15905;SDS011;8051;50.820;4.884;2023-08-24T11:31:37;18.40;;;16.70;;
15905;SDS011;8051;50.820;4.884;2023-08-24T11:34:06;20.43;;;18.63;;
15905;SDS011;8051;50.820;4.884;2023-08-24T11:36:41;20.73;;;19.03;;
15905;SDS011;8051;50.820;4.884;2023-08-24T11:39:14;21.40;;;19.67;;
15905;SDS011;8051;50.820;4.884;2023-08-24T11:41:43;20.97;;;19.33;;
15905;SDS011;8051;50.820;4.884;2023-08-24T11:44:11;19.97;;;18.20;;
15905;SDS011;8051;50.820;4.884;2023-08-24T11:46:38;22.63;;;20.77;;
15905;SDS011;8051;50.820;4.884;2023-08-24T11:49:07;21.33;;;19.43;;
15905;SDS011;8051;50.820;4.884;2023-08-24T11:51:36;22.60;;;20.90;;
15905;SDS011;8051;50.820;4.884;2023-08-24T11:54:03;22.70;;;20.97;;
15905;SDS011;8051;50.820;4.884;2023-08-24T11:56:34;23.30;;;21.57;;
15905;SDS011;8051;50.820;4.884;2023-08-24T11:59:10;23.47;;;21.57;;
15905;SDS011;8051;50.820;4.884;2023-08-24T12:01:39;23.17;;;21.13;;
15905;SDS011;8051;50.820;4.884;2023-08-24T12:04:09;22.27;;;20.57;;
15905;SDS011;8051;50.820;4.884;2023-08-24T12:06:37;22.27;;;20.67;;
15905;SDS011;8051;50.820;4.884;2023-08-24T12:09:05;22.87;;;21.13;;
15905;SDS011;8051;50.820;4.884;2023-08-24T12:11:35;21.93;;;20.30;;
15905;SDS011;8051;50.820;4.884;2023-08-24T12:14:02;22.30;;;20.53;;
15905;SDS011;8051;50.820;4.884;2023-08-24T12:16:32;21.97;;;20.37;;
15905;SDS011;8051;50.820;4.884;2023-08-24T12:19:00;21.03;;;19.53;;
15905;SDS011;8051;50.820;4.884;2023-08-24T12:21:30;21.07;;;19.47;;
15905;SDS011;8051;50.820;4.884;2023-08-24T12:23:58;21.67;;;19.87;;
15905;SDS011;8051;50.820;4.884;2023-08-24T12:26:26;19.97;;;18.67;;
15905;SDS011;8051;50.820;4.884;2023-08-24T12:28:55;19.40;;;17.97;;
15905;SDS011;8051;50.820;4.884;2023-08-24T12:31:28;19.23;;;17.73;;
15905;SDS011;8051;50.820;4.884;2023-08-24T12:33:59;19.80;;;18.40;;
15905;SDS011;8051;50.820;4.884;2023-08-24T12:36:30;19.30;;;17.80;;
15905;SDS011;8051;50.820;4.884;2023-08-24T12:38:58;20.07;;;18.67;;
15905;SDS011;8051;50.820;4.884;2023-08-24T12:41:25;20.10;;;18.57;;
15905;SDS011;8051;50.820;4.884;2023-08-24T12:43:53;17.93;;;16.63;;
15905;SDS011;8051;50.820;4.884;2023-08-24T12:46:21;19.00;;;17.43;;
15905;SDS011;8051;50.820;4.884;2023-08-24T12:48:49;17.93;;;16.47;;
15905;SDS011;8051;50.820;4.884;2023-08-24T12:51:16;17.63;;;16.40;;
15905;SDS011;8051;50.820;4.884;2023-08-24T12:53:45;17.43;;;16.13;;
15905;SDS011;8051;50.820;4.884;2023-08-24T12:56:13;17.43;;;16.03;;
15905;SDS011;8051;50.820;4.884;2023-08-24T12:58:40;16.83;;;15.47;;
15905;SDS011;8051;50.820;4.884;2023-08-24T13:01:08;14.53;;;13.43;;
15905;SDS011;8051;50.820;4.884;2023-08-24T13:03:35;14.37;;;13.20;;
15905;SDS011;8051;50.820;4.884;2023-08-24T13:06:04;14.27;;;13.13;;
15905;SDS011;8051;50.820;4.884;2023-08-24T13:08:32;13.87;;;12.87;;
15905;SDS011;8051;50.820;4.884;2023-08-24T13:11:01;13.20;;;12.20;;
15905;SDS011;8051;50.820;4.884;2023-08-24T13:13:28;13.80;;;12.90;;
15905;SDS011;8051;50.820;4.884;2023-08-24T13:15:56;9.70;;;8.80;;
15905;SDS011;8051;50.820;4.884;2023-08-24T13:18:23;9.23;;;7.63;;
15905;SDS011;8051;50.820;4.884;2023-08-24T13:20:50;9.27;;;8.57;;
15905;SDS011;8051;50.820;4.884;2023-08-24T13:23:18;9.43;;;8.53;;
15905;SDS011;8051;50.820;4.884;2023-08-24T13:25:45;8.23;;;7.53;;
15905;SDS011;8051;50.820;4.884;2023-08-24T13:28:14;8.73;;;8.00;;
15905;SDS011;8051;50.820;4.884;2023-08-24T13:30:42;7.63;;;6.93;;
15905;SDS011;8051;50.820;4.884;2023-08-24T13:33:09;8.27;;;7.47;;
15905;SDS011;8051;50.820;4.884;2023-08-24T13:35:37;9.10;;;8.23;;
15905;SDS011;8051;50.820;4.884;2023-08-24T13:38:05;8.30;;;7.70;;
15905;SDS011;8051;50.820;4.884;2023-08-24T13:40:32;8.37;;;7.67;;
15905;SDS011;8051;50.820;4.884;2023-08-24T13:42:59;8.43;;;7.73;;
15905;SDS011;8051;50.820;4.884;2023-08-24T13:45:28;9.73;;;8.83;;
15905;SDS011;8051;50.820;4.884;2023-08-24T13:47:56;7.80;;;7.20;;
15905;SDS011;8051;50.820;4.884;2023-08-24T13:50:23;9.83;;;8.80;;
15905;SDS011;8051;50.820;4.884;2023-08-24T13:52:51;8.93;;;8.20;;
15905;SDS011;8051;50.820;4.884;2023-08-24T13:55:18;8.27;;;7.50;;
15905;SDS011;8051;50.820;4.884;2023-08-24T13:57:46;8.37;;;7.67;;
15905;SDS011;8051;50.820;4.884;2023-08-24T14:00:14;7.70;;;7.00;;
15905;SDS011;8051;50.820;4.884;2023-08-24T14:02:43;8.17;;;7.47;;
15905;SDS011;8051;50.820;4.884;2023-08-24T14:05:13;7.33;;;6.30;;
15905;SDS011;8051;50.820;4.884;2023-08-24T14:07:40;7.57;;;6.97;;
15905;SDS011;8051;50.820;4.884;2023-08-24T14:10:08;7.80;;;7.17;;
15905;SDS011;8051;50.820;4.884;2023-08-24T14:12:37;7.37;;;6.73;;
15905;SDS011;8051;50.820;4.884;2023-08-24T14:15:05;7.57;;;6.67;;
15905;SDS011;8051;50.820;4.884;2023-08-24T14:17:33;7.77;;;7.27;;
15905;SDS011;8051;50.820;4.884;2023-08-24T14:20:02;7.07;;;6.57;;
15905;SDS011;8051;50.820;4.884;2023-08-24T14:22:30;8.07;;;7.40;;
15905;SDS011;8051;50.820;4.884;2023-08-24T14:24:58;9.27;;;8.33;;
15905;SDS011;8051;50.820;4.884;2023-08-24T14:27:25;9.50;;;8.60;;
15905;SDS011;8051;50.820;4.884;2023-08-24T14:29:53;9.50;;;8.90;;
15905;SDS011;8051;50.820;4.884;2023-08-24T14:32:21;8.60;;;8.10;;
15905;SDS011;8051;50.820;4.884;2023-08-24T14:34:48;9.57;;;8.90;;
15905;SDS011;8051;50.820;4.884;2023-08-24T14:37:17;9.80;;;8.80;;
15905;SDS011;8051;50.820;4.884;2023-08-24T14:39:45;10.20;;;9.37;;
15905;SDS011;8051;50.820;4.884;2023-08-24T14:42:12;9.60;;;9.00;;
15905;SDS011;8051;50.820;4.884;2023-08-24T14:44:40;9.97;;;9.07;;
15905;SDS011;8051;50.820;4.884;2023-08-24T14:47:07;9.20;;;8.60;;
15905;SDS011;8051;50.820;4.884;2023-08-24T14:49:35;11.43;;;10.57;;
15905;SDS011;8051;50.820;4.884;2023-08-24T14:52:02;10.77;;;10.07;;